createdAt,value
2022-09-12T00:00:52.155Z,14.82
2022-09-12T00:03:18.663Z,14.79
2022-09-12T00:05:46.660Z,14.81
2022-09-12T00:08:14.491Z,14.80
2022-09-12T00:10:43.252Z,14.79
2022-09-12T00:13:10.142Z,14.73
2022-09-12T00:15:44.006Z,14.63
2022-09-12T00:18:14.277Z,14.62
2022-09-12T00:20:46.139Z,14.64
2022-09-12T00:23:13.122Z,14.66
2022-09-12T00:25:47.631Z,14.71
2022-09-12T00:28:16.636Z,14.68
2022-09-12T00:30:44.307Z,14.67
2022-09-12T00:33:11.523Z,14.65
2022-09-12T00:35:43.288Z,14.64
2022-09-12T00:38:10.083Z,14.60
2022-09-12T00:40:36.511Z,14.60
2022-09-12T00:43:03.076Z,14.56
2022-09-12T00:45:30.115Z,14.53
2022-09-12T00:48:01.224Z,14.53
2022-09-12T00:50:28.066Z,14.53
2022-09-12T00:53:07.896Z,14.53
2022-09-12T00:55:43.888Z,14.53
2022-09-12T00:58:24.624Z,14.51
2022-09-12T01:00:51.514Z,14.45
2022-09-12T01:03:20.515Z,14.40
2022-09-12T01:06:13.299Z,14.38
2022-09-12T01:08:41.630Z,14.35
2022-09-12T01:11:10.116Z,14.37
2022-09-12T01:13:37.330Z,14.40
2022-09-12T01:16:06.018Z,14.39
2022-09-12T01:18:47.482Z,14.32
2022-09-12T01:21:35.699Z,14.28
2022-09-12T01:24:33.441Z,14.21
2022-09-12T01:27:18.906Z,14.17
2022-09-12T01:29:58.281Z,14.17
2022-09-12T01:32:36.759Z,14.16
2022-09-12T01:35:42.164Z,14.18
2022-09-12T01:38:39.625Z,14.16
2022-09-12T01:41:21.026Z,14.16
2022-09-12T01:44:15.080Z,14.15
2022-09-12T01:46:47.280Z,14.16
2022-09-12T01:49:16.672Z,14.14
2022-09-12T01:52:04.887Z,14.11
2022-09-12T01:54:39.245Z,14.11
2022-09-12T01:57:18.608Z,14.06
2022-09-12T01:59:49.612Z,14.03
2022-09-12T02:02:23.989Z,14.01
2022-09-12T02:05:14.772Z,13.94
2022-09-12T02:07:48.699Z,13.88
2022-09-12T02:10:17.030Z,13.83
2022-09-12T02:12:49.454Z,13.76
2022-09-12T02:15:20.522Z,13.65
2022-09-12T02:17:50.511Z,13.58
2022-09-12T02:20:44.473Z,13.60
2022-09-12T02:23:16.346Z,13.65
2022-09-12T02:25:46.877Z,13.68
2022-09-12T02:28:25.305Z,13.72
2022-09-12T02:31:17.395Z,13.70
2022-09-12T02:34:02.043Z,13.71
2022-09-12T02:36:50.089Z,13.73
2022-09-12T02:39:20.867Z,13.73
2022-09-12T02:41:51.666Z,13.72
2022-09-12T02:44:18.919Z,13.71
2022-09-12T02:46:50.607Z,13.69
2022-09-12T02:49:17.416Z,13.72
2022-09-12T02:51:45.417Z,13.69
2022-09-12T02:54:13.771Z,13.67
2022-09-12T02:56:42.922Z,13.66
2022-09-12T02:59:11.656Z,13.65
2022-09-12T03:02:06.757Z,13.65
2022-09-12T03:04:58.592Z,13.63
2022-09-12T03:08:01.975Z,13.62
2022-09-12T03:11:06.002Z,13.61
2022-09-12T03:14:07.700Z,13.60
2022-09-12T03:16:49.437Z,13.53
2022-09-12T03:19:21.345Z,13.49
2022-09-12T03:22:35.862Z,13.47
2022-09-12T03:25:17.604Z,13.44
2022-09-12T03:27:57.155Z,13.41
2022-09-12T03:30:23.569Z,13.44
2022-09-12T03:32:52.675Z,13.47
2022-09-12T03:35:23.103Z,13.47
2022-09-12T03:37:51.028Z,13.46
2022-09-12T03:40:17.725Z,13.45
2022-09-12T03:42:44.126Z,13.38
2022-09-12T03:45:10.929Z,13.35
2022-09-12T03:47:37.591Z,13.38
2022-09-12T03:50:04.993Z,13.37
2022-09-12T03:52:31.424Z,13.38
2022-09-12T03:54:57.765Z,13.35
2022-09-12T03:57:24.120Z,13.35
2022-09-12T03:59:50.654Z,13.35
2022-09-12T04:02:17.679Z,13.33
2022-09-12T04:04:44.208Z,13.29
2022-09-12T04:07:11.656Z,13.26
2022-09-12T04:09:38.246Z,13.21
2022-09-12T04:12:05.221Z,13.19
2022-09-12T04:14:31.585Z,13.15
2022-09-12T04:16:58.083Z,13.15
2022-09-12T04:19:26.150Z,13.13
2022-09-12T04:21:52.913Z,13.13
2022-09-12T04:24:19.360Z,13.12
2022-09-12T04:26:45.720Z,13.12
2022-09-12T04:29:12.621Z,13.08
2022-09-12T04:31:39.371Z,13.04
2022-09-12T04:34:05.722Z,13.00
2022-09-12T04:36:34.250Z,12.96
2022-09-12T04:39:01.648Z,12.94
2022-09-12T04:41:31.529Z,12.91
2022-09-12T04:44:04.164Z,12.83
2022-09-12T04:46:33.918Z,12.77
2022-09-12T04:49:00.306Z,12.78
2022-09-12T04:51:30.157Z,12.77
2022-09-12T04:53:59.864Z,12.75
2022-09-12T04:56:27.793Z,12.74
2022-09-12T04:58:54.425Z,12.78
2022-09-12T05:01:23.090Z,12.80
2022-09-12T05:03:50.532Z,12.81
2022-09-12T05:06:22.796Z,12.71
2022-09-12T05:08:50.535Z,12.62
2022-09-12T05:11:24.078Z,12.60
2022-09-12T05:13:51.879Z,12.55
2022-09-12T05:16:19.586Z,12.53
2022-09-12T05:18:47.165Z,12.53
2022-09-12T05:21:16.023Z,12.55
2022-09-12T05:23:42.922Z,12.58
2022-09-12T05:26:13.399Z,12.61
2022-09-12T05:28:40.590Z,12.66
2022-09-12T05:31:15.599Z,12.72
2022-09-12T05:33:44.412Z,12.71
2022-09-12T05:36:14.358Z,12.73
2022-09-12T05:38:40.950Z,12.76
2022-09-12T05:41:17.533Z,12.73
2022-09-12T05:43:45.600Z,12.71
2022-09-12T05:46:14.497Z,12.73
2022-09-12T05:48:42.665Z,12.78
2022-09-12T05:51:12.574Z,12.83
2022-09-12T05:53:40.752Z,12.83
2022-09-12T05:56:09.153Z,12.84
2022-09-12T05:58:37.678Z,12.92
2022-09-12T06:01:12.352Z,13.05
2022-09-12T06:03:44.547Z,13.26
2022-09-12T06:06:13.725Z,13.51
2022-09-12T06:08:46.826Z,13.77
2022-09-12T06:11:16.712Z,13.95
2022-09-12T06:13:43.634Z,14.11
2022-09-12T06:16:13.523Z,14.30
2022-09-12T06:18:41.547Z,14.39
2022-09-12T06:21:10.654Z,14.47
2022-09-12T06:23:37.917Z,14.65
2022-09-12T06:26:05.440Z,14.76
2022-09-12T06:28:33.404Z,14.85
2022-09-12T06:31:25.062Z,14.98
2022-09-12T06:33:53.107Z,14.92
2022-09-12T06:36:24.864Z,15.04
2022-09-12T06:39:21.024Z,15.24
2022-09-12T06:41:49.117Z,15.29
2022-09-12T06:44:22.257Z,15.25
2022-09-12T06:46:49.361Z,15.23
2022-09-12T06:49:17.507Z,15.35
2022-09-12T06:51:44.380Z,15.41
2022-09-12T06:54:13.690Z,15.38
2022-09-12T06:56:40.520Z,15.31
2022-09-12T06:59:06.978Z,15.33
2022-09-12T07:01:36.257Z,15.44
2022-09-12T07:04:04.343Z,15.56
2022-09-12T07:06:42.052Z,15.67
2022-09-12T07:09:11.236Z,15.69
2022-09-12T07:11:39.685Z,15.82
2022-09-12T07:14:08.356Z,15.97
2022-09-12T07:16:36.625Z,16.03
2022-09-12T07:19:05.206Z,16.13
2022-09-12T07:21:41.385Z,16.25
2022-09-12T07:24:09.555Z,16.33
2022-09-12T07:26:36.300Z,16.29
2022-09-12T07:29:32.260Z,16.36
2022-09-12T07:31:49.554Z,16.46
2022-09-12T07:34:15.900Z,16.56
2022-09-12T07:36:42.340Z,16.62
2022-09-12T07:39:09.670Z,16.63
2022-09-12T07:41:36.086Z,16.66
2022-09-12T07:44:06.642Z,16.78
2022-09-12T07:46:33.471Z,16.78
2022-09-12T07:49:01.301Z,16.80
2022-09-12T07:51:30.247Z,16.86
2022-09-12T07:53:56.749Z,16.84
2022-09-12T07:56:28.804Z,16.89
2022-09-12T07:58:56.843Z,16.99
2022-09-12T08:01:23.650Z,17.13
2022-09-12T08:03:54.190Z,17.20
2022-09-12T08:06:24.192Z,17.15
2022-09-12T08:08:51.908Z,17.15
2022-09-12T08:11:20.599Z,17.26
2022-09-12T08:13:52.937Z,17.35
2022-09-12T08:16:23.110Z,17.46
2022-09-12T08:18:50.202Z,17.53
2022-09-12T08:21:28.762Z,17.68
2022-09-12T08:24:00.983Z,17.86
2022-09-12T08:26:27.967Z,18.00
2022-09-12T08:28:54.581Z,18.10
2022-09-12T08:31:23.475Z,18.25
2022-09-12T08:33:51.419Z,18.37
2022-09-12T08:36:21.289Z,18.41
2022-09-12T08:38:49.589Z,18.46
2022-09-12T08:41:18.967Z,18.57
2022-09-12T08:44:05.445Z,18.66
2022-09-12T08:46:45.254Z,18.75
2022-09-12T08:49:18.481Z,18.86
2022-09-12T08:51:45.359Z,19.00
2022-09-12T08:54:22.609Z,19.21
2022-09-12T08:56:49.105Z,19.36
2022-09-12T08:59:16.095Z,19.54
2022-09-12T09:01:45.748Z,19.72
2022-09-12T09:04:15.276Z,19.86
2022-09-12T09:07:06.572Z,19.90
2022-09-12T09:09:45.140Z,19.93
2022-09-12T09:12:26.849Z,20.00
2022-09-12T09:15:11.950Z,20.27
2022-09-12T09:17:45.389Z,20.49
2022-09-12T09:20:34.260Z,20.63
2022-09-12T09:23:17.432Z,20.75
2022-09-12T09:25:53.785Z,20.94
2022-09-12T09:28:45.215Z,21.09
2022-09-12T09:31:16.131Z,20.88
2022-09-12T09:33:43.718Z,20.85
2022-09-12T09:36:31.808Z,21.03
2022-09-12T09:39:09.650Z,21.23
2022-09-12T09:41:55.001Z,21.40
2022-09-12T09:44:21.678Z,21.54
2022-09-12T09:46:53.838Z,21.71
2022-09-12T09:49:21.279Z,21.78
2022-09-12T09:51:48.493Z,21.76
2022-09-12T09:54:24.860Z,21.68
2022-09-12T09:56:51.620Z,21.61
2022-09-12T09:59:33.219Z,21.69
2022-09-12T10:02:24.177Z,21.88
2022-09-12T10:04:58.813Z,22.03
2022-09-12T10:07:26.657Z,22.23
2022-09-12T10:10:19.541Z,22.37
2022-09-12T10:12:46.152Z,22.48
2022-09-12T10:15:18.781Z,22.62
2022-09-12T10:17:48.237Z,22.77
2022-09-12T10:20:29.952Z,22.82
2022-09-12T10:22:58.018Z,22.89
2022-09-12T10:25:26.005Z,22.99
2022-09-12T10:27:56.269Z,23.00
2022-09-12T10:30:28.062Z,23.00
2022-09-12T10:32:59.833Z,23.03
2022-09-12T10:35:34.478Z,23.05
2022-09-12T10:38:12.368Z,23.02
2022-09-12T10:40:43.165Z,23.08
2022-09-12T10:43:35.111Z,23.27
2022-09-12T10:46:22.763Z,23.32
2022-09-12T10:48:50.754Z,23.25
2022-09-12T10:51:26.052Z,23.32
2022-09-12T10:54:02.012Z,23.30
2022-09-12T10:56:32.631Z,23.28
2022-09-12T10:59:36.544Z,23.27
2022-09-12T11:02:22.195Z,23.33
2022-09-12T11:05:07.923Z,23.46
2022-09-12T11:07:38.701Z,23.64
2022-09-12T11:10:44.145Z,23.69
2022-09-12T11:13:38.999Z,23.67
2022-09-12T11:16:34.488Z,23.70
2022-09-12T11:19:22.234Z,23.85
2022-09-12T11:22:22.798Z,24.07
2022-09-12T11:25:07.633Z,24.12
2022-09-12T11:27:52.790Z,24.05
2022-09-12T11:30:19.424Z,23.98
2022-09-12T11:33:33.574Z,23.94
2022-09-12T11:36:04.438Z,24.17
2022-09-12T11:38:51.983Z,24.18
2022-09-12T11:41:23.125Z,24.37
2022-09-12T11:44:12.444Z,24.72
2022-09-12T11:46:41.828Z,24.95
2022-09-12T11:49:14.333Z,24.99
2022-09-12T11:51:55.460Z,24.83
2022-09-12T11:54:30.412Z,25.04
2022-09-12T11:57:16.762Z,25.26
2022-09-12T12:00:02.112Z,25.28
2022-09-12T12:02:40.174Z,25.26
2022-09-12T12:05:22.548Z,25.10
2022-09-12T12:08:01.056Z,24.93
2022-09-12T12:10:35.586Z,25.05
2022-09-12T12:13:12.047Z,25.10
2022-09-12T12:15:47.117Z,25.10
2022-09-12T12:18:24.291Z,25.20
2022-09-12T12:20:51.978Z,25.42
2022-09-12T12:23:28.571Z,25.53
2022-09-12T12:25:57.795Z,25.64
2022-09-12T12:28:42.524Z,25.72
2022-09-12T12:31:10.449Z,25.78
2022-09-12T12:33:39.823Z,25.91
2022-09-12T12:36:09.814Z,25.83
2022-09-12T12:38:38.381Z,25.76
2022-09-12T12:41:17.053Z,25.70
2022-09-12T12:43:50.742Z,25.76
2022-09-12T12:46:20.183Z,25.90
2022-09-12T12:48:49.990Z,25.94
2022-09-12T12:51:37.119Z,25.83
2022-09-12T12:54:25.499Z,25.87
2022-09-12T12:57:01.340Z,25.97
2022-09-12T12:59:28.591Z,25.92
2022-09-12T13:01:58.385Z,25.92
2022-09-12T13:04:28.605Z,25.96
2022-09-12T13:06:59.267Z,25.96
2022-09-12T13:09:34.593Z,26.00
2022-09-12T13:12:08.877Z,26.15
2022-09-12T13:14:49.694Z,26.26
2022-09-12T13:17:27.824Z,26.25
2022-09-12T13:20:26.795Z,26.28
2022-09-12T13:22:52.953Z,26.35
2022-09-12T13:25:31.253Z,26.40
2022-09-12T13:28:15.883Z,26.47
2022-09-12T13:30:54.342Z,26.27
2022-09-12T13:33:39.272Z,26.06
2022-09-12T13:36:23.783Z,26.04
2022-09-12T13:38:54.367Z,26.14
2022-09-12T13:41:38.839Z,26.00
2022-09-12T13:44:10.609Z,26.00
2022-09-12T13:46:37.862Z,26.11
2022-09-12T13:49:15.851Z,26.35
2022-09-12T13:51:43.361Z,26.47
2022-09-12T13:54:21.327Z,26.42
2022-09-12T13:56:50.240Z,26.44
2022-09-12T13:59:16.678Z,26.48
2022-09-12T14:01:46.285Z,26.52
2022-09-12T14:04:37.606Z,26.44
2022-09-12T14:07:22.077Z,26.46
2022-09-12T14:09:57.731Z,26.57
2022-09-12T14:12:32.318Z,26.51
2022-09-12T14:14:58.829Z,26.51
2022-09-12T14:17:31.733Z,26.60
2022-09-12T14:20:23.179Z,26.54
2022-09-12T14:22:51.589Z,26.59
2022-09-12T14:25:21.739Z,26.59
2022-09-12T14:27:52.598Z,26.45
2022-09-12T14:30:33.116Z,26.45
2022-09-12T14:33:05.440Z,26.48
2022-09-12T14:35:35.325Z,26.48
2022-09-12T14:38:16.972Z,26.52
2022-09-12T14:40:52.937Z,26.46
2022-09-12T14:43:42.976Z,26.38
2022-09-12T14:46:23.155Z,26.41
2022-09-12T14:48:53.451Z,26.40
2022-09-12T14:51:30.950Z,26.37
2022-09-12T14:53:58.624Z,26.34
2022-09-12T14:56:43.321Z,26.38
2022-09-12T14:59:31.460Z,26.50
2022-09-12T15:02:22.877Z,26.52
2022-09-12T15:04:55.226Z,26.50
2022-09-12T15:07:39.934Z,26.41
2022-09-12T15:10:25.134Z,26.39
2022-09-12T15:13:10.891Z,26.32
2022-09-12T15:15:40.744Z,26.22
2022-09-12T15:18:07.489Z,26.13
2022-09-12T15:20:42.541Z,26.08
2022-09-12T15:23:44.889Z,26.06
2022-09-12T15:26:17.377Z,25.99
2022-09-12T15:28:44.784Z,25.94
2022-09-12T15:31:25.442Z,25.90
2022-09-12T15:33:52.675Z,25.89
2022-09-12T15:36:21.612Z,25.85
2022-09-12T15:38:51.537Z,25.70
2022-09-12T15:41:23.517Z,25.60
2022-09-12T15:43:50.709Z,25.48
2022-09-12T15:46:18.545Z,25.38
2022-09-12T15:48:45.458Z,25.37
2022-09-12T15:51:18.486Z,25.26
2022-09-12T15:53:45.997Z,25.10
2022-09-12T15:56:12.679Z,24.92
2022-09-12T15:58:54.701Z,24.81
2022-09-12T16:01:26.885Z,24.64
2022-09-12T16:03:53.380Z,24.57
2022-09-12T16:06:19.928Z,24.47
2022-09-12T16:08:46.636Z,24.46
2022-09-12T16:11:32.127Z,24.37
2022-09-12T16:13:59.748Z,24.32
2022-09-12T16:16:26.423Z,24.25
2022-09-12T16:18:52.852Z,24.21
2022-09-12T16:21:19.213Z,24.18
2022-09-12T16:23:47.131Z,24.14
2022-09-12T16:26:14.192Z,24.12
2022-09-12T16:28:40.713Z,24.11
2022-09-12T16:31:09.026Z,24.09
2022-09-12T16:36:07.398Z,24.02
2022-09-12T16:38:35.838Z,23.91
2022-09-12T16:41:04.228Z,23.84
2022-09-12T16:43:32.547Z,23.79
2022-09-12T16:46:09.663Z,23.71
2022-09-12T16:48:37.794Z,23.66
2022-09-12T16:51:06.809Z,23.64
2022-09-12T16:53:35.313Z,23.62
2022-09-12T16:56:01.786Z,23.62
2022-09-12T16:58:28.356Z,23.55
2022-09-12T17:01:06.959Z,23.53
2022-09-12T17:03:35.751Z,23.48
2022-09-12T17:06:11.925Z,23.41
2022-09-12T17:08:41.097Z,23.38
2022-09-12T17:11:13.885Z,23.32
2022-09-12T17:14:03.433Z,23.24
2022-09-12T17:16:28.285Z,23.11
2022-09-12T17:18:55.101Z,23.00
2022-09-12T17:21:21.712Z,22.87
2022-09-12T17:23:48.571Z,22.78
2022-09-12T17:26:15.170Z,22.73
2022-09-12T17:28:41.896Z,22.65
2022-09-12T17:31:10.786Z,22.56
2022-09-12T17:33:37.642Z,22.48
2022-09-12T17:36:16.265Z,22.39
2022-09-12T17:38:44.291Z,22.35
2022-09-12T17:41:17.439Z,22.30
2022-09-12T17:43:50.781Z,22.18
2022-09-12T17:46:21.165Z,22.06
2022-09-12T17:48:56.323Z,21.92
2022-09-12T17:51:24.938Z,21.86
2022-09-12T17:53:59.189Z,21.78
2022-09-12T17:56:28.044Z,21.77
2022-09-12T17:58:56.409Z,21.78
2022-09-12T18:01:42.319Z,21.77
2022-09-12T18:04:10.656Z,21.67
2022-09-12T18:06:37.603Z,21.54
2022-09-12T18:09:06.361Z,21.44
2022-09-12T18:11:33.513Z,21.37
2022-09-12T18:14:00.355Z,21.34
2022-09-12T18:16:28.513Z,21.29
2022-09-12T18:18:55.386Z,21.26
2022-09-12T18:21:21.788Z,21.17
2022-09-12T18:23:48.152Z,21.09
2022-09-12T18:26:14.769Z,20.99
2022-09-12T18:28:43.759Z,20.94
2022-09-12T18:31:16.422Z,20.89
2022-09-12T18:33:44.881Z,20.84
2022-09-12T18:36:12.903Z,20.77
2022-09-12T18:38:40.430Z,20.71
2022-09-12T18:41:09.271Z,20.67
2022-09-12T18:43:37.289Z,20.62
2022-09-12T18:46:05.359Z,20.58
2022-09-12T18:48:32.874Z,20.54
2022-09-12T18:51:08.243Z,20.54
2022-09-12T18:53:36.743Z,20.54
2022-09-12T18:56:06.216Z,20.52
2022-09-12T18:58:32.561Z,20.46
2022-09-12T19:00:59.274Z,20.41
2022-09-12T19:03:25.851Z,20.34
2022-09-12T19:05:52.258Z,20.28
2022-09-12T19:08:20.829Z,20.25
2022-09-12T19:10:54.899Z,20.22
2022-09-12T19:13:21.377Z,20.22
2022-09-12T19:15:47.819Z,20.21
2022-09-12T19:18:14.255Z,20.14
2022-09-12T19:20:40.611Z,20.04
2022-09-12T19:23:06.963Z,19.93
2022-09-12T19:25:33.506Z,19.88
2022-09-12T19:27:59.925Z,19.87
2022-09-12T19:30:26.360Z,19.83
2022-09-12T19:32:52.783Z,19.80
2022-09-12T19:35:19.167Z,19.75
2022-09-12T19:37:45.624Z,19.72
2022-09-12T19:40:12.079Z,19.71
2022-09-12T19:42:38.451Z,19.70
2022-09-12T19:45:05.569Z,19.65
2022-09-12T19:47:32.022Z,19.56
2022-09-12T19:49:58.356Z,19.50
2022-09-12T19:52:24.790Z,19.45
2022-09-12T19:54:51.208Z,19.34
2022-09-12T19:57:17.597Z,19.29
2022-09-12T19:59:45.061Z,19.28
2022-09-12T20:02:11.468Z,19.27
2022-09-12T20:04:39.009Z,19.20
2022-09-12T20:07:05.388Z,19.14
2022-09-12T20:09:31.800Z,19.10
2022-09-12T20:11:58.133Z,19.05
2022-09-12T20:14:24.495Z,19.07
2022-09-12T20:16:50.870Z,19.07
2022-09-12T20:19:17.221Z,19.04
2022-09-12T20:21:43.648Z,19.05
2022-09-12T20:24:12.447Z,19.07
2022-09-12T20:26:39.827Z,19.02
2022-09-12T20:29:06.711Z,18.96
2022-09-12T20:31:34.880Z,18.90
2022-09-12T20:34:01.411Z,18.88
2022-09-12T20:36:28.167Z,18.83
2022-09-12T20:38:57.390Z,18.79
2022-09-12T20:41:24.839Z,18.76
2022-09-12T20:43:55.413Z,18.75
2022-09-12T20:46:22.905Z,18.72
2022-09-12T20:48:50.280Z,18.70
2022-09-12T20:51:16.747Z,18.68
2022-09-12T20:53:43.129Z,18.68
2022-09-12T20:56:09.563Z,18.66
2022-09-12T20:58:38.371Z,18.61
2022-09-12T21:01:09.346Z,18.60
2022-09-12T21:03:39.418Z,18.59
2022-09-12T21:06:06.981Z,18.58
2022-09-12T21:08:34.466Z,18.56
2022-09-12T21:11:01.059Z,18.52
2022-09-12T21:13:28.002Z,18.46
2022-09-12T21:16:02.216Z,18.45
2022-09-12T21:18:28.847Z,18.41
2022-09-12T21:20:55.911Z,18.40
2022-09-12T21:23:24.050Z,18.41
2022-09-12T21:25:52.675Z,18.40
2022-09-12T21:28:20.117Z,18.37
2022-09-12T21:30:50.214Z,18.37
2022-09-12T21:33:17.582Z,18.33
2022-09-12T21:35:44.766Z,18.34
2022-09-12T21:38:11.627Z,18.34
2022-09-12T21:40:38.026Z,18.33
2022-09-12T21:43:05.196Z,18.28
2022-09-12T21:45:32.800Z,18.27
2022-09-12T21:47:59.191Z,18.22
2022-09-12T21:50:26.044Z,18.12
2022-09-12T21:52:52.672Z,18.07
2022-09-12T21:55:19.474Z,18.02
2022-09-12T21:57:46.679Z,17.97
2022-09-12T22:00:15.806Z,17.96
2022-09-12T22:02:42.441Z,17.92
2022-09-12T22:05:10.288Z,17.90
2022-09-12T22:07:37.886Z,17.86
2022-09-12T22:10:04.868Z,17.80
2022-09-12T22:12:31.322Z,17.80
2022-09-12T22:14:57.772Z,17.79
2022-09-12T22:17:24.208Z,17.75
2022-09-12T22:19:50.712Z,17.72
2022-09-12T22:22:35.750Z,17.70
2022-09-12T22:25:02.376Z,17.68
2022-09-12T22:27:29.122Z,17.66
2022-09-12T22:29:55.689Z,17.69
2022-09-12T22:32:22.048Z,17.64
2022-09-12T22:34:48.446Z,17.61
2022-09-12T22:37:14.802Z,17.59
2022-09-12T22:39:41.219Z,17.57
2022-09-12T22:42:09.152Z,17.50
2022-09-12T22:44:35.741Z,17.46
2022-09-12T22:47:02.226Z,17.42
2022-09-12T22:49:28.607Z,17.39
2022-09-12T22:51:54.984Z,17.38
2022-09-12T22:54:21.326Z,17.41
2022-09-12T22:56:47.750Z,17.42
2022-09-12T22:59:14.115Z,17.45
2022-09-12T23:01:40.668Z,17.43
2022-09-12T23:04:07.113Z,17.41
2022-09-12T23:06:33.494Z,17.40
2022-09-12T23:08:59.893Z,17.33
2022-09-12T23:11:26.817Z,17.27
2022-09-12T23:13:53.352Z,17.22
2022-09-12T23:16:22.185Z,17.20
2022-09-12T23:18:49.652Z,17.19
2022-09-12T23:21:18.684Z,17.19
2022-09-12T23:23:45.168Z,17.20
2022-09-12T23:26:14.314Z,17.19
2022-09-12T23:28:42.337Z,17.13
2022-09-12T23:31:09.637Z,17.14
2022-09-12T23:33:36.605Z,17.08
2022-09-12T23:36:06.287Z,17.00
2022-09-12T23:38:34.357Z,16.99
2022-09-12T23:41:01.809Z,17.01
2022-09-12T23:43:29.729Z,17.03
2022-09-12T23:45:56.912Z,17.03
2022-09-12T23:48:23.626Z,16.99
2022-09-12T23:50:50.988Z,16.96
2022-09-12T23:53:18.326Z,16.94
2022-09-12T23:55:44.825Z,16.94
2022-09-12T23:58:12.072Z,16.90
